createdAt,value
2018-09-07T00:02:05.375Z,99.90
2018-09-07T00:04:34.419Z,99.90
2018-09-07T00:07:03.441Z,99.90
2018-09-07T00:09:32.464Z,99.90
2018-09-07T00:12:01.415Z,99.90
2018-09-07T00:14:30.372Z,99.90
2018-09-07T00:16:59.304Z,99.90
2018-09-07T00:19:29.318Z,99.90
2018-09-07T00:21:58.212Z,99.90
2018-09-07T00:24:27.113Z,99.90
2018-09-07T00:26:56.211Z,99.90
2018-09-07T00:29:25.382Z,99.90
2018-09-07T00:31:54.336Z,99.90
2018-09-07T00:34:23.291Z,99.90
2018-09-07T00:36:52.176Z,99.90
2018-09-07T00:39:21.482Z,99.90
2018-09-07T00:41:50.502Z,99.90
2018-09-07T00:44:19.449Z,99.90
2018-09-07T00:46:48.388Z,99.90
2018-09-07T00:49:17.396Z,99.90
2018-09-07T00:51:46.312Z,99.90
2018-09-07T00:54:15.288Z,99.90
2018-09-07T00:56:44.252Z,99.90
2018-09-07T00:59:13.132Z,99.90
2018-09-07T01:01:45.121Z,99.90
2018-09-07T01:04:14.504Z,99.90
2018-09-07T01:06:43.406Z,99.90
2018-09-07T01:09:12.382Z,99.90
2018-09-07T01:11:41.794Z,99.90
2018-09-07T01:14:10.852Z,99.90
2018-09-07T01:16:39.772Z,99.90
2018-09-07T01:19:08.794Z,99.90
2018-09-07T01:21:37.747Z,99.90
2018-09-07T01:24:06.779Z,99.90
2018-09-07T01:26:35.760Z,99.90
2018-09-07T01:29:04.791Z,99.90
2018-09-07T01:31:33.971Z,99.90
2018-09-07T01:34:03.232Z,99.90
2018-09-07T01:36:32.220Z,99.90
2018-09-07T01:39:01.113Z,99.90
2018-09-07T01:41:30.031Z,99.90
2018-09-07T01:43:58.960Z,99.90
2018-09-07T01:46:28.406Z,99.90
2018-09-07T01:48:57.641Z,99.90
2018-09-07T01:51:26.714Z,99.90
2018-09-07T01:53:55.611Z,99.90
2018-09-07T01:56:24.724Z,99.90
2018-09-07T01:58:53.818Z,99.90
2018-09-07T02:01:22.776Z,99.90
2018-09-07T02:03:53.937Z,99.90
2018-09-07T02:06:23.774Z,99.90
2018-09-07T02:08:52.739Z,99.90
2018-09-07T02:11:21.647Z,99.90
2018-09-07T02:13:55.161Z,99.90
2018-09-07T02:16:24.336Z,99.90
2018-09-07T02:18:53.328Z,99.90
2018-09-07T02:21:22.178Z,99.90
2018-09-07T02:23:51.077Z,99.90
2018-09-07T02:29:37.385Z,99.90
2018-09-07T02:32:06.589Z,99.90
2018-09-07T02:34:35.539Z,99.90
2018-09-07T02:37:04.836Z,99.90
2018-09-07T02:39:40.232Z,99.90
2018-09-07T02:42:10.011Z,99.90
2018-09-07T02:44:39.055Z,99.90
2018-09-07T02:47:07.931Z,99.90
2018-09-07T02:49:36.891Z,99.90
2018-09-07T02:52:05.968Z,99.90
2018-09-07T02:54:36.110Z,99.90
2018-09-07T02:57:05.292Z,99.90
2018-09-07T02:59:34.214Z,99.90
2018-09-07T03:02:03.084Z,99.90
2018-09-07T03:04:32.121Z,99.90
2018-09-07T03:07:01.028Z,99.90
2018-09-07T03:09:29.988Z,99.90
2018-09-07T03:11:58.879Z,99.90
2018-09-07T03:14:28.099Z,99.90
2018-09-07T03:16:57.140Z,99.90
2018-09-07T03:19:26.113Z,99.90
2018-09-07T03:21:55.109Z,99.90
2018-09-07T03:24:24.031Z,99.90
2018-09-07T03:26:52.924Z,99.90
2018-09-07T03:29:21.861Z,99.90
2018-09-07T03:31:51.015Z,99.90
2018-09-07T03:34:20.078Z,99.90
2018-09-07T03:36:49.027Z,99.90
2018-09-07T03:39:18.009Z,99.90
2018-09-07T03:41:47.063Z,99.90
2018-09-07T03:44:16.039Z,99.90
2018-09-07T03:46:45.025Z,99.90
2018-09-07T03:49:19.603Z,99.90
2018-09-07T03:51:54.075Z,99.90
2018-09-07T03:54:28.402Z,99.90
2018-09-07T03:56:57.263Z,99.90
2018-09-07T03:59:26.236Z,99.90
2018-09-07T04:02:02.014Z,99.90
2018-09-07T04:04:30.976Z,99.90
2018-09-07T04:06:59.997Z,99.90
2018-09-07T04:09:29.034Z,99.90
2018-09-07T04:11:57.928Z,99.90
2018-09-07T04:14:26.857Z,99.90
2018-09-07T04:16:55.716Z,99.90
2018-09-07T04:19:25.124Z,99.90
2018-09-07T04:21:54.028Z,99.90
2018-09-07T04:24:25.244Z,99.90
2018-09-07T04:26:54.649Z,99.90
2018-09-07T04:29:23.655Z,99.90
2018-09-07T04:31:52.539Z,99.90
2018-09-07T04:34:21.477Z,99.90
2018-09-07T04:36:50.335Z,99.90
2018-09-07T04:39:19.255Z,99.90
2018-09-07T04:41:48.145Z,99.90
2018-09-07T04:44:17.046Z,99.90
2018-09-07T04:46:45.936Z,99.90
2018-09-07T04:49:14.906Z,99.90
2018-09-07T04:51:43.846Z,99.90
2018-09-07T04:54:12.767Z,99.90
2018-09-07T04:56:41.642Z,99.90
2018-09-07T04:59:10.553Z,99.90
2018-09-07T05:01:39.916Z,99.90
2018-09-07T05:04:08.803Z,99.90
2018-09-07T05:06:37.667Z,99.90
2018-09-07T05:09:07.647Z,99.90
2018-09-07T05:11:36.634Z,99.90
2018-09-07T05:14:05.685Z,99.90
2018-09-07T05:16:34.546Z,99.90
2018-09-07T05:19:03.523Z,99.90
2018-09-07T05:21:32.459Z,99.90
2018-09-07T05:24:01.354Z,99.90
2018-09-07T05:26:30.205Z,99.90
2018-09-07T05:28:59.095Z,99.90
2018-09-07T05:31:27.981Z,99.90
2018-09-07T05:33:56.928Z,99.90
2018-09-07T05:36:25.811Z,99.90
2018-09-07T05:38:54.733Z,99.90
2018-09-07T05:41:23.624Z,99.90
2018-09-07T05:43:52.496Z,99.90
2018-09-07T05:46:21.350Z,99.90
2018-09-07T05:48:50.356Z,99.90
2018-09-07T05:51:19.168Z,99.90
2018-09-07T05:53:48.031Z,99.90
2018-09-07T05:56:16.891Z,99.90
2018-09-07T05:58:45.838Z,99.90
2018-09-07T06:01:14.680Z,99.90
2018-09-07T06:03:43.985Z,99.90
2018-09-07T06:06:12.943Z,99.90
2018-09-07T06:08:41.879Z,99.90
2018-09-07T06:11:10.780Z,99.90
2018-09-07T06:13:39.756Z,99.90
2018-09-07T06:16:08.683Z,99.90
2018-09-07T06:18:37.759Z,99.90
2018-09-07T06:21:06.758Z,99.90
2018-09-07T06:23:35.659Z,99.90
2018-09-07T06:26:04.499Z,99.90
2018-09-07T06:28:33.331Z,99.90
2018-09-07T06:31:02.218Z,99.90
2018-09-07T06:33:31.129Z,99.90
2018-09-07T06:35:59.952Z,99.90
2018-09-07T06:38:28.848Z,99.90
2018-09-07T06:40:58.043Z,99.90
2018-09-07T06:43:26.925Z,99.90
2018-09-07T06:45:55.772Z,99.90
2018-09-07T06:48:24.660Z,99.90
2018-09-07T06:50:53.932Z,99.90
2018-09-07T06:53:22.772Z,99.90
2018-09-07T06:55:51.668Z,99.90
2018-09-07T06:58:20.739Z,99.90
2018-09-07T07:00:49.631Z,99.90
2018-09-07T07:03:18.479Z,99.90
2018-09-07T07:05:47.338Z,99.90
2018-09-07T07:08:16.436Z,99.90
2018-09-07T07:10:45.349Z,99.90
2018-09-07T07:13:14.257Z,99.90
2018-09-07T07:15:43.155Z,99.90
2018-09-07T07:18:12.014Z,99.90
2018-09-07T07:20:40.933Z,99.90
2018-09-07T07:23:09.831Z,99.90
2018-09-07T07:25:38.714Z,99.90
2018-09-07T07:28:07.913Z,99.90
2018-09-07T07:30:37.392Z,99.90
2018-09-07T07:33:06.692Z,99.90
2018-09-07T07:35:35.588Z,99.90
2018-09-07T07:38:04.491Z,99.90
2018-09-07T07:40:33.499Z,99.90
2018-09-07T07:43:02.403Z,99.90
2018-09-07T07:45:31.287Z,99.90
2018-09-07T07:48:00.291Z,99.90
2018-09-07T07:50:29.153Z,99.90
2018-09-07T07:52:58.068Z,99.90
2018-09-07T07:55:26.981Z,99.90
2018-09-07T07:57:56.198Z,99.90
2018-09-07T08:00:26.172Z,99.90
2018-09-07T08:02:55.071Z,99.90
2018-09-07T08:05:23.919Z,99.90
2018-09-07T08:07:52.831Z,99.90
2018-09-07T08:10:21.790Z,99.90
2018-09-07T08:12:50.668Z,99.90
2018-09-07T08:15:19.582Z,99.90
2018-09-07T08:17:48.439Z,99.90
2018-09-07T08:20:17.403Z,99.90
2018-09-07T08:22:46.280Z,99.90
2018-09-07T08:25:15.128Z,99.90
2018-09-07T08:27:43.958Z,99.90
2018-09-07T08:30:12.924Z,99.90
2018-09-07T08:32:42.631Z,99.90
2018-09-07T08:35:11.507Z,99.90
2018-09-07T08:37:40.433Z,99.90
2018-09-07T08:40:09.404Z,99.90
2018-09-07T08:42:38.428Z,99.90
2018-09-07T08:45:07.916Z,99.90
2018-09-07T08:47:36.783Z,99.90
2018-09-07T08:50:05.765Z,99.90
2018-09-07T08:52:34.631Z,99.90
2018-09-07T08:55:03.588Z,99.90
2018-09-07T08:57:32.448Z,99.90
2018-09-07T09:00:01.336Z,99.90
2018-09-07T09:02:30.680Z,99.90
2018-09-07T09:04:59.700Z,99.90
2018-09-07T09:07:28.613Z,99.90
2018-09-07T09:09:57.497Z,99.90
2018-09-07T09:12:26.364Z,99.90
2018-09-07T09:14:55.252Z,99.90
2018-09-07T09:17:24.143Z,99.90
2018-09-07T09:19:53.068Z,99.90
2018-09-07T09:22:21.940Z,99.90
2018-09-07T09:24:50.866Z,99.90
2018-09-07T09:27:19.718Z,99.90
2018-09-07T09:29:48.624Z,99.90
2018-09-07T09:32:17.627Z,99.90
2018-09-07T09:34:46.487Z,99.90
2018-09-07T09:37:15.554Z,99.90
2018-09-07T09:39:45.294Z,99.90
2018-09-07T09:42:14.207Z,99.90
2018-09-07T09:44:43.138Z,99.90
2018-09-07T09:47:12.133Z,99.90
2018-09-07T09:49:41.095Z,99.90
2018-09-07T09:52:09.953Z,99.90
2018-09-07T09:54:38.811Z,99.90
2018-09-07T09:57:07.654Z,99.90
2018-09-07T09:59:36.580Z,99.90
2018-09-07T10:02:11.131Z,99.90
2018-09-07T10:04:39.992Z,99.90
2018-09-07T10:07:08.864Z,99.90
2018-09-07T10:09:37.796Z,99.90
2018-09-07T10:12:06.769Z,99.90
2018-09-07T10:14:35.551Z,99.90
2018-09-07T10:17:04.443Z,99.90
2018-09-07T10:19:33.304Z,99.90
2018-09-07T10:22:02.203Z,99.90
2018-09-07T10:24:31.188Z,99.90
2018-09-07T10:27:00.103Z,99.90
2018-09-07T10:29:29.159Z,99.90
2018-09-07T10:31:58.021Z,99.90
2018-09-07T10:34:26.889Z,99.90
2018-09-07T10:36:55.756Z,99.90
2018-09-07T10:39:24.715Z,99.90
2018-09-07T10:41:53.621Z,99.90
2018-09-07T10:44:22.544Z,99.90
2018-09-07T10:46:51.396Z,99.90
2018-09-07T10:49:20.312Z,99.90
2018-09-07T10:51:49.188Z,99.90
2018-09-07T10:54:18.045Z,99.90
2018-09-07T10:56:46.973Z,99.90
2018-09-07T10:59:17.050Z,99.90
2018-09-07T11:01:45.875Z,99.90
2018-09-07T11:04:15.348Z,99.90
2018-09-07T11:06:44.328Z,99.90
2018-09-07T11:09:13.315Z,99.90
2018-09-07T11:11:42.185Z,99.90
2018-09-07T11:14:11.063Z,99.90
2018-09-07T11:16:39.951Z,99.40
2018-09-07T11:19:08.956Z,99.90
2018-09-07T11:21:37.859Z,99.80
2018-09-07T11:24:06.728Z,99.20
2018-09-07T11:26:35.688Z,97.50
2018-09-07T11:29:04.724Z,98.00
2018-09-07T11:31:33.620Z,97.80
2018-09-07T11:34:02.478Z,96.90
2018-09-07T11:36:31.353Z,97.70
2018-09-07T11:39:00.276Z,98.50
2018-09-07T11:41:29.203Z,98.80
2018-09-07T11:43:58.184Z,98.80
2018-09-07T11:46:27.151Z,97.90
2018-09-07T11:48:56.081Z,99.50
2018-09-07T11:51:25.037Z,99.90
2018-09-07T11:53:53.955Z,99.90
2018-09-07T11:56:22.977Z,99.50
2018-09-07T11:58:52.849Z,99.70
2018-09-07T12:01:21.760Z,99.40
2018-09-07T12:03:50.656Z,99.30
2018-09-07T12:06:19.566Z,99.80
2018-09-07T12:08:48.508Z,99.90
2018-09-07T12:11:17.405Z,99.90
2018-09-07T12:13:46.307Z,99.90
2018-09-07T12:16:15.216Z,99.90
2018-09-07T12:18:44.200Z,99.90
2018-09-07T12:21:13.138Z,99.90
2018-09-07T12:23:42.271Z,99.90
2018-09-07T12:26:11.283Z,99.90
2018-09-07T12:28:40.399Z,99.90
2018-09-07T12:31:09.447Z,99.90
2018-09-07T12:33:38.452Z,99.90
2018-09-07T12:36:07.342Z,99.90
2018-09-07T12:38:36.336Z,99.90
2018-09-07T12:41:05.417Z,99.20
2018-09-07T12:43:34.444Z,98.90
2018-09-07T12:46:04.667Z,98.30
2018-09-07T12:48:33.726Z,96.60
2018-09-07T12:51:03.903Z,96.90
2018-09-07T12:53:33.545Z,96.40
2018-09-07T12:56:02.879Z,96.70
2018-09-07T12:58:33.704Z,96.60
2018-09-07T13:01:02.626Z,95.10
2018-09-07T13:03:31.561Z,96.00
2018-09-07T13:06:02.135Z,94.90
2018-09-07T13:08:31.540Z,95.30
2018-09-07T13:11:00.478Z,94.70
2018-09-07T13:13:29.395Z,94.60
2018-09-07T13:15:58.283Z,93.60
2018-09-07T13:18:27.209Z,94.10
2018-09-07T13:20:56.096Z,94.80
2018-09-07T13:23:24.988Z,95.20
2018-09-07T13:25:53.904Z,92.90
2018-09-07T13:28:22.781Z,93.60
2018-09-07T13:30:51.709Z,94.00
2018-09-07T13:33:20.616Z,93.70
2018-09-07T13:35:49.517Z,93.30
2018-09-07T13:38:18.394Z,93.50
2018-09-07T13:40:47.271Z,94.30
2018-09-07T13:43:16.133Z,94.60
2018-09-07T13:45:45.057Z,95.50
2018-09-07T13:48:13.966Z,98.90
2018-09-07T13:50:42.812Z,99.90
2018-09-07T13:53:11.712Z,99.90
2018-09-07T13:55:40.552Z,99.90
2018-09-07T13:58:09.429Z,99.90
2018-09-07T14:00:38.278Z,99.90
2018-09-07T14:03:07.179Z,99.90
2018-09-07T14:05:36.080Z,99.90
2018-09-07T14:08:05.078Z,99.90
2018-09-07T14:10:33.983Z,99.90
2018-09-07T14:13:02.823Z,99.90
2018-09-07T14:15:31.683Z,99.90
2018-09-07T14:18:00.709Z,99.90
2018-09-07T14:20:29.705Z,99.90
2018-09-07T14:22:58.589Z,99.90
2018-09-07T14:25:27.459Z,99.90
2018-09-07T14:27:56.311Z,99.90
2018-09-07T14:30:25.338Z,99.90
2018-09-07T14:32:54.174Z,99.90
2018-09-07T14:35:23.044Z,99.90
2018-09-07T14:37:51.910Z,99.90
2018-09-07T14:40:20.832Z,99.90
2018-09-07T14:42:49.749Z,99.90
2018-09-07T14:45:18.948Z,99.90
2018-09-07T14:47:48.256Z,99.90
2018-09-07T14:50:17.157Z,99.90
2018-09-07T14:52:46.056Z,99.90
2018-09-07T14:55:15.612Z,99.90
2018-09-07T14:57:44.708Z,99.90
2018-09-07T15:00:13.589Z,99.90
2018-09-07T15:02:42.459Z,99.90
2018-09-07T15:05:11.523Z,99.90
2018-09-07T15:07:40.375Z,99.90
2018-09-07T15:10:09.284Z,99.90
2018-09-07T15:12:38.116Z,99.90
2018-09-07T15:15:07.043Z,99.90
2018-09-07T15:17:35.915Z,99.90
2018-09-07T15:20:05.331Z,99.90
2018-09-07T15:22:34.211Z,99.90
2018-09-07T15:25:03.099Z,99.90
2018-09-07T15:27:32.047Z,99.90
2018-09-07T15:30:01.020Z,99.90
2018-09-07T15:32:29.893Z,99.90
2018-09-07T15:34:59.069Z,99.90
2018-09-07T15:37:28.315Z,99.90
2018-09-07T15:39:57.317Z,99.90
2018-09-07T15:42:26.211Z,99.90
2018-09-07T15:44:55.212Z,99.90
2018-09-07T15:47:24.368Z,99.90
2018-09-07T15:49:53.687Z,99.90
2018-09-07T15:52:22.838Z,99.90
2018-09-07T15:54:52.026Z,99.90
2018-09-07T15:57:20.906Z,99.90
2018-09-07T15:59:50.396Z,99.90
2018-09-07T16:02:19.543Z,99.90
2018-09-07T16:04:48.820Z,99.90
2018-09-07T16:07:18.442Z,99.90
2018-09-07T16:09:47.429Z,99.90
2018-09-07T16:12:16.458Z,99.90
2018-09-07T16:14:45.460Z,99.90
2018-09-07T16:17:15.037Z,99.90
2018-09-07T16:19:44.008Z,99.90
2018-09-07T16:22:12.948Z,99.90
2018-09-07T16:24:42.454Z,99.90
2018-09-07T16:27:11.508Z,99.90
2018-09-07T16:29:40.529Z,99.90
2018-09-07T16:32:09.388Z,99.90
2018-09-07T16:34:38.392Z,99.90
2018-09-07T16:37:07.276Z,99.90
2018-09-07T16:39:36.365Z,99.90
2018-09-07T16:42:05.183Z,99.90
2018-09-07T16:44:34.052Z,99.90
2018-09-07T16:47:02.952Z,99.90
2018-09-07T16:49:31.944Z,99.90
2018-09-07T16:52:00.982Z,99.90
2018-09-07T16:54:30.014Z,99.90
2018-09-07T16:56:58.941Z,99.90
2018-09-07T16:59:28.195Z,99.90
2018-09-07T17:01:57.039Z,99.90
2018-09-07T17:04:25.884Z,99.90
2018-09-07T17:06:54.824Z,99.90
2018-09-07T17:09:23.843Z,99.90
2018-09-07T17:11:52.736Z,99.90
2018-09-07T17:14:22.051Z,99.90
2018-09-07T17:16:51.042Z,99.90
2018-09-07T17:19:20.615Z,99.90
2018-09-07T17:21:49.568Z,99.90
2018-09-07T17:24:18.499Z,99.90
2018-09-07T17:26:47.396Z,99.90
2018-09-07T17:29:16.420Z,99.90
2018-09-07T17:31:45.355Z,99.90
2018-09-07T17:34:14.225Z,99.90
2018-09-07T17:36:43.141Z,99.90
2018-09-07T17:39:12.084Z,99.90
2018-09-07T17:41:41.059Z,99.90
2018-09-07T17:44:09.956Z,99.90
2018-09-07T17:46:39.144Z,99.90
2018-09-07T17:49:08.135Z,99.90
2018-09-07T17:51:37.005Z,99.90
2018-09-07T17:54:06.000Z,99.90
2018-09-07T17:56:35.027Z,99.90
2018-09-07T17:59:04.280Z,99.90
2018-09-07T18:01:33.163Z,99.90
2018-09-07T18:04:02.038Z,99.90
2018-09-07T18:06:31.105Z,99.90
2018-09-07T18:09:00.543Z,99.90
2018-09-07T18:11:29.438Z,99.90
2018-09-07T18:13:58.880Z,99.90
2018-09-07T18:16:27.860Z,99.90
2018-09-07T18:18:56.847Z,99.90
2018-09-07T18:21:25.744Z,99.90
2018-09-07T18:23:54.661Z,99.90
2018-09-07T18:26:23.523Z,99.90
2018-09-07T18:28:52.412Z,99.90
2018-09-07T18:31:21.288Z,99.90
2018-09-07T18:33:50.583Z,99.90
2018-09-07T18:36:19.533Z,99.90
2018-09-07T18:38:49.523Z,99.90
2018-09-07T18:41:18.409Z,99.90
2018-09-07T18:43:47.292Z,99.90
2018-09-07T18:46:16.276Z,99.90
2018-09-07T18:48:45.621Z,99.90
2018-09-07T18:51:15.796Z,99.90
2018-09-07T18:53:44.708Z,99.90
2018-09-07T18:56:13.670Z,99.90
2018-09-07T18:58:43.531Z,99.90
2018-09-07T19:01:12.401Z,99.90
2018-09-07T19:03:41.335Z,99.90
2018-09-07T19:06:10.189Z,99.90
2018-09-07T19:08:39.086Z,99.90
2018-09-07T19:11:08.034Z,99.90
2018-09-07T19:13:37.611Z,99.90
2018-09-07T19:16:06.691Z,99.90
2018-09-07T19:18:35.492Z,99.90
2018-09-07T19:21:04.471Z,99.90
2018-09-07T19:23:33.349Z,99.90
2018-09-07T19:26:02.224Z,99.90
2018-09-07T19:28:32.015Z,99.90
2018-09-07T19:31:01.491Z,99.90
2018-09-07T19:33:30.360Z,99.90
2018-09-07T19:35:59.227Z,99.90
2018-09-07T19:38:28.060Z,99.90
2018-09-07T19:40:57.003Z,99.90
2018-09-07T19:43:26.003Z,99.90
2018-09-07T19:45:54.912Z,99.90
2018-09-07T19:48:23.804Z,99.90
2018-09-07T19:50:52.752Z,99.90
2018-09-07T19:53:21.602Z,99.90
2018-09-07T19:55:50.443Z,99.90
2018-09-07T19:58:19.335Z,99.90
2018-09-07T20:00:48.207Z,99.90
2018-09-07T20:03:17.068Z,99.90
2018-09-07T20:05:45.984Z,99.90
2018-09-07T20:08:14.813Z,99.90
2018-09-07T20:10:43.824Z,99.90
2018-09-07T20:13:12.693Z,99.90
2018-09-07T20:15:41.910Z,99.90
2018-09-07T20:18:10.890Z,99.90
2018-09-07T20:20:40.660Z,99.90
2018-09-07T20:23:09.547Z,99.90
2018-09-07T20:25:45.203Z,99.90
2018-09-07T20:28:14.080Z,99.90
2018-09-07T20:30:43.025Z,99.90
2018-09-07T20:33:11.875Z,99.90
2018-09-07T20:35:41.619Z,99.90
2018-09-07T20:38:10.515Z,99.90
2018-09-07T20:40:39.384Z,99.90
2018-09-07T20:43:08.248Z,99.90
2018-09-07T20:45:37.131Z,99.90
2018-09-07T20:48:06.032Z,99.90
2018-09-07T20:50:34.892Z,99.90
2018-09-07T20:53:03.720Z,99.90
2018-09-07T20:55:32.598Z,99.90
2018-09-07T20:58:02.015Z,99.90
2018-09-07T21:00:30.940Z,99.90
2018-09-07T21:02:59.803Z,99.90
2018-09-07T21:05:28.643Z,99.90
2018-09-07T21:07:57.515Z,99.90
2018-09-07T21:10:26.380Z,99.90
2018-09-07T21:12:55.240Z,99.90
2018-09-07T21:15:24.112Z,99.90
2018-09-07T21:17:52.956Z,99.90
2018-09-07T21:20:21.823Z,99.90
2018-09-07T21:22:50.699Z,99.90
2018-09-07T21:25:19.521Z,99.90
2018-09-07T21:27:48.386Z,99.90
2018-09-07T21:30:17.302Z,99.90
2018-09-07T21:32:46.139Z,99.90
2018-09-07T21:35:15.003Z,99.90
2018-09-07T21:37:44.459Z,99.90
2018-09-07T21:40:13.611Z,99.90
2018-09-07T21:42:42.703Z,99.90
2018-09-07T21:45:11.576Z,99.90
2018-09-07T21:47:40.413Z,99.90
2018-09-07T21:50:09.348Z,99.90
2018-09-07T21:52:38.194Z,99.90
2018-09-07T21:55:07.060Z,99.90
2018-09-07T21:57:35.969Z,99.90
2018-09-07T22:00:17.891Z,99.90
2018-09-07T22:02:57.860Z,99.90
2018-09-07T22:05:43.903Z,99.90
2018-09-07T22:08:12.619Z,99.90
2018-09-07T22:10:41.339Z,99.90
2018-09-07T22:13:10.215Z,99.90
2018-09-07T22:15:39.044Z,99.90
2018-09-07T22:18:07.895Z,99.90
2018-09-07T22:20:38.844Z,99.90
2018-09-07T22:23:07.804Z,99.90
2018-09-07T22:25:36.614Z,99.90
2018-09-07T22:28:05.438Z,99.90
2018-09-07T22:30:34.707Z,99.90
2018-09-07T22:33:03.626Z,99.90
2018-09-07T22:35:32.399Z,99.90
2018-09-07T22:38:01.287Z,99.90
2018-09-07T22:40:30.295Z,99.90
2018-09-07T22:42:59.727Z,99.90
2018-09-07T22:45:28.779Z,99.90
2018-09-07T22:47:57.724Z,99.90
2018-09-07T22:50:27.103Z,99.90
2018-09-07T22:52:55.969Z,99.90
2018-09-07T22:55:24.802Z,99.90
2018-09-07T22:57:53.686Z,99.90
2018-09-07T23:00:23.487Z,99.90
2018-09-07T23:02:53.747Z,99.90
2018-09-07T23:05:22.964Z,99.90
2018-09-07T23:07:52.403Z,99.90
2018-09-07T23:10:21.354Z,99.90
2018-09-07T23:12:50.809Z,99.90
2018-09-07T23:15:19.627Z,99.90
2018-09-07T23:17:48.484Z,99.90
2018-09-07T23:20:17.418Z,99.90
2018-09-07T23:22:46.305Z,99.90
2018-09-07T23:25:15.120Z,99.90
2018-09-07T23:27:43.904Z,99.90
2018-09-07T23:30:12.790Z,99.90
2018-09-07T23:32:41.632Z,99.90
2018-09-07T23:35:10.483Z,99.90
2018-09-07T23:37:39.291Z,99.90
2018-09-07T23:40:08.174Z,99.90
2018-09-07T23:42:37.007Z,99.90
2018-09-07T23:45:05.935Z,99.90
2018-09-07T23:47:34.775Z,99.90
2018-09-07T23:50:03.794Z,99.90
2018-09-07T23:52:32.627Z,99.90
2018-09-07T23:55:01.462Z,99.90
2018-09-07T23:57:30.315Z,99.90
2018-09-07T23:59:59.164Z,99.90
